createdAt,value
2022-10-31T00:00:52.140Z,2.13
2022-10-31T00:03:20.737Z,1.80
2022-10-31T00:05:50.337Z,2.25
2022-10-31T00:08:19.418Z,2.45
2022-10-31T00:10:48.000Z,2.03
2022-10-31T00:13:17.419Z,2.63
2022-10-31T00:15:45.723Z,3.05
2022-10-31T00:18:15.541Z,2.30
2022-10-31T00:20:43.638Z,2.35
2022-10-31T00:23:13.359Z,2.20
2022-10-31T00:25:42.113Z,2.15
2022-10-31T00:28:13.569Z,2.17
2022-10-31T00:30:41.786Z,2.33
2022-10-31T00:33:10.028Z,2.55
2022-10-31T00:35:39.970Z,2.15
2022-10-31T00:38:07.945Z,3.10
2022-10-31T00:40:35.923Z,2.22
2022-10-31T00:43:04.401Z,1.90
2022-10-31T00:45:32.919Z,2.92
2022-10-31T00:48:01.237Z,2.90
2022-10-31T00:50:29.531Z,2.53
2022-10-31T00:52:59.571Z,2.90
2022-10-31T00:55:27.591Z,2.70
2022-10-31T00:57:55.619Z,2.40
2022-10-31T01:00:23.813Z,2.55
2022-10-31T01:02:51.899Z,2.65
2022-10-31T01:05:20.316Z,2.90
2022-10-31T01:07:48.756Z,2.65
2022-10-31T01:10:18.954Z,2.75
2022-10-31T01:12:48.773Z,2.67
2022-10-31T01:15:18.899Z,2.83
2022-10-31T01:17:47.057Z,2.50
2022-10-31T01:20:18.616Z,2.60
2022-10-31T01:22:46.821Z,2.83
2022-10-31T01:25:14.986Z,2.92
2022-10-31T01:27:44.411Z,2.42
2022-10-31T01:30:13.470Z,2.50
2022-10-31T01:32:41.504Z,2.35
2022-10-31T01:35:09.667Z,2.40
2022-10-31T01:37:37.632Z,1.90
2022-10-31T01:40:06.771Z,2.20
2022-10-31T01:42:37.409Z,2.55
2022-10-31T01:45:12.147Z,2.22
2022-10-31T01:47:46.891Z,2.38
2022-10-31T01:50:29.218Z,2.90
2022-10-31T01:52:57.649Z,2.20
2022-10-31T01:55:30.324Z,2.42
2022-10-31T01:58:04.618Z,2.47
2022-10-31T02:00:34.364Z,2.58
2022-10-31T02:03:02.985Z,2.10
2022-10-31T02:05:32.683Z,2.75
2022-10-31T02:08:04.681Z,2.10
2022-10-31T02:10:34.773Z,2.25
2022-10-31T02:13:05.693Z,3.63
2022-10-31T02:15:40.311Z,2.13
2022-10-31T02:18:09.830Z,2.10
2022-10-31T02:20:48.399Z,2.40
2022-10-31T02:23:45.241Z,1.98
2022-10-31T02:26:46.945Z,3.10
2022-10-31T02:29:40.399Z,2.97
2022-10-31T02:32:17.922Z,2.47
2022-10-31T02:34:54.705Z,2.38
2022-10-31T02:37:28.512Z,2.42
2022-10-31T02:40:06.584Z,3.33
2022-10-31T02:43:04.789Z,3.10
2022-10-31T02:45:38.668Z,2.92
2022-10-31T02:48:13.116Z,2.05
2022-10-31T02:50:48.014Z,2.50
2022-10-31T02:53:17.043Z,2.33
2022-10-31T02:55:52.152Z,2.20
2022-10-31T02:58:24.880Z,2.58
2022-10-31T03:01:30.629Z,1.83
2022-10-31T03:04:18.241Z,2.75
2022-10-31T03:06:51.597Z,3.13
2022-10-31T03:09:26.840Z,2.20
2022-10-31T03:12:04.389Z,2.13
2022-10-31T03:14:45.651Z,2.33
2022-10-31T03:17:23.617Z,2.80
2022-10-31T03:19:57.252Z,2.08
2022-10-31T03:22:31.983Z,2.90
2022-10-31T03:25:03.388Z,1.95
2022-10-31T03:27:35.726Z,2.00
2022-10-31T03:30:08.765Z,2.10
2022-10-31T03:32:56.047Z,1.92
2022-10-31T03:35:28.443Z,2.53
2022-10-31T03:37:57.997Z,2.28
2022-10-31T03:40:29.135Z,2.35
2022-10-31T03:43:03.068Z,3.30
2022-10-31T03:45:35.477Z,2.20
2022-10-31T03:48:05.918Z,1.92
2022-10-31T03:50:42.779Z,1.98
2022-10-31T03:53:18.291Z,2.60
2022-10-31T03:55:53.190Z,2.47
2022-10-31T03:58:24.044Z,2.78
2022-10-31T04:00:54.215Z,1.95
2022-10-31T04:03:27.360Z,2.15
2022-10-31T04:06:04.487Z,2.47
2022-10-31T04:08:38.607Z,2.30
2022-10-31T04:11:08.007Z,2.33
2022-10-31T04:13:42.319Z,2.22
2022-10-31T04:16:17.299Z,2.75
2022-10-31T04:18:46.298Z,2.50
2022-10-31T04:21:15.668Z,2.20
2022-10-31T04:23:44.231Z,2.58
2022-10-31T04:26:19.784Z,2.20
2022-10-31T04:28:48.362Z,2.90
2022-10-31T04:31:17.119Z,2.30
2022-10-31T04:33:47.175Z,3.17
2022-10-31T04:36:16.583Z,3.42
2022-10-31T04:38:44.670Z,2.30
2022-10-31T04:41:26.136Z,2.13
2022-10-31T04:43:58.042Z,2.17
2022-10-31T04:46:28.473Z,2.28
2022-10-31T04:48:58.389Z,2.33
2022-10-31T04:51:27.801Z,2.63
2022-10-31T04:53:56.779Z,2.38
2022-10-31T04:56:47.680Z,2.47
2022-10-31T04:59:21.337Z,3.08
2022-10-31T05:01:53.595Z,2.72
2022-10-31T05:04:43.203Z,2.10
2022-10-31T05:07:12.853Z,2.50
2022-10-31T05:09:41.079Z,2.70
2022-10-31T05:12:09.044Z,2.20
2022-10-31T05:14:59.985Z,2.97
2022-10-31T05:17:46.932Z,2.60
2022-10-31T05:20:35.159Z,2.35
2022-10-31T05:23:15.006Z,2.60
2022-10-31T05:25:43.505Z,2.72
2022-10-31T05:28:11.507Z,2.03
2022-10-31T05:30:39.669Z,2.58
2022-10-31T05:33:11.714Z,2.53
2022-10-31T05:36:02.343Z,2.33
2022-10-31T05:38:41.324Z,1.92
2022-10-31T05:41:24.817Z,2.42
2022-10-31T05:43:54.895Z,2.40
2022-10-31T05:46:28.154Z,2.03
2022-10-31T05:49:31.731Z,1.95
2022-10-31T05:52:18.431Z,2.72
2022-10-31T05:54:55.989Z,3.40
2022-10-31T05:57:24.121Z,2.53
2022-10-31T05:59:55.094Z,3.38
2022-10-31T06:02:24.529Z,4.07
2022-10-31T06:05:31.316Z,2.22
2022-10-31T06:08:00.160Z,2.42
2022-10-31T06:10:30.347Z,2.47
2022-10-31T06:12:58.589Z,3.03
2022-10-31T06:15:43.596Z,3.85
2022-10-31T06:18:13.166Z,3.78
2022-10-31T06:20:52.682Z,2.58
2022-10-31T06:23:20.769Z,2.78
2022-10-31T06:25:55.099Z,2.45
2022-10-31T06:28:23.384Z,2.30
2022-10-31T06:30:55.210Z,2.83
2022-10-31T06:33:24.044Z,3.42
2022-10-31T06:35:57.930Z,2.78
2022-10-31T06:38:27.544Z,2.45
2022-10-31T06:40:57.567Z,2.53
2022-10-31T06:43:29.214Z,3.33
2022-10-31T06:46:24.403Z,3.00
2022-10-31T06:49:08.165Z,2.58
2022-10-31T06:51:59.251Z,3.25
2022-10-31T06:54:28.022Z,3.30
2022-10-31T06:56:57.771Z,3.55
2022-10-31T06:59:26.331Z,3.42
2022-10-31T07:02:17.996Z,3.30
2022-10-31T07:04:46.535Z,2.58
2022-10-31T07:07:16.532Z,2.70
2022-10-31T07:09:44.711Z,2.78
2022-10-31T07:12:17.849Z,2.85
2022-10-31T07:14:55.201Z,2.65
2022-10-31T07:17:29.730Z,2.45
2022-10-31T07:20:00.482Z,2.80
2022-10-31T07:22:34.825Z,2.42
2022-10-31T07:25:03.080Z,3.33
2022-10-31T07:27:51.175Z,3.53
2022-10-31T07:30:20.806Z,2.83
2022-10-31T07:32:53.264Z,3.33
2022-10-31T07:35:25.446Z,3.15
2022-10-31T07:38:00.068Z,3.67
2022-10-31T07:40:28.654Z,2.85
2022-10-31T07:43:00.549Z,2.58
2022-10-31T07:45:53.044Z,3.10
2022-10-31T07:48:41.232Z,3.05
2022-10-31T07:51:31.343Z,3.38
2022-10-31T07:54:18.337Z,3.08
2022-10-31T07:56:48.169Z,3.63
2022-10-31T07:59:18.026Z,3.10
2022-10-31T08:01:46.611Z,3.50
2022-10-31T08:04:37.680Z,5.22
2022-10-31T08:07:39.319Z,4.38
2022-10-31T08:10:14.048Z,3.70
2022-10-31T08:12:42.261Z,3.70
2022-10-31T08:15:12.184Z,3.58
2022-10-31T08:17:41.137Z,4.07
2022-10-31T08:20:10.238Z,4.15
2022-10-31T08:22:45.242Z,3.60
2022-10-31T08:25:13.757Z,3.70
2022-10-31T08:27:42.176Z,3.58
2022-10-31T08:30:24.099Z,4.05
2022-10-31T08:33:14.243Z,3.63
2022-10-31T08:36:00.780Z,3.83
2022-10-31T08:39:01.908Z,3.60
2022-10-31T08:41:31.375Z,2.80
2022-10-31T08:44:01.094Z,3.88
2022-10-31T08:46:30.679Z,3.10
2022-10-31T08:48:58.796Z,3.20
2022-10-31T08:51:26.952Z,3.28
2022-10-31T08:53:57.543Z,3.95
2022-10-31T08:56:43.912Z,3.08
2022-10-31T08:59:26.195Z,2.72
2022-10-31T09:02:15.124Z,2.72
2022-10-31T09:04:43.375Z,2.45
2022-10-31T09:07:26.842Z,3.25
2022-10-31T09:09:56.801Z,3.58
2022-10-31T09:12:25.953Z,3.05
2022-10-31T09:15:14.423Z,4.78
2022-10-31T09:17:50.516Z,3.15
2022-10-31T09:20:44.024Z,2.20
2022-10-31T09:23:14.370Z,3.05
2022-10-31T09:25:49.166Z,2.60
2022-10-31T09:28:36.890Z,4.38
2022-10-31T09:31:15.332Z,2.78
2022-10-31T09:33:55.052Z,2.70
2022-10-31T09:36:40.210Z,2.33
2022-10-31T09:39:15.914Z,2.28
2022-10-31T09:42:17.408Z,1.52
2022-10-31T09:44:53.916Z,1.90
2022-10-31T09:47:38.401Z,1.90
2022-10-31T09:50:44.039Z,2.33
2022-10-31T09:53:38.742Z,1.63
2022-10-31T09:56:09.660Z,2.47
2022-10-31T09:58:45.669Z,1.90
2022-10-31T10:01:36.691Z,1.60
2022-10-31T10:04:19.812Z,3.45
2022-10-31T10:07:16.616Z,2.00
2022-10-31T10:09:44.747Z,2.10
2022-10-31T10:12:43.169Z,2.40
2022-10-31T10:15:43.825Z,2.58
2022-10-31T10:18:23.566Z,1.92
2022-10-31T10:21:04.075Z,1.40
2022-10-31T10:23:51.043Z,2.45
2022-10-31T10:26:21.281Z,2.95
2022-10-31T10:28:54.035Z,2.53
2022-10-31T10:31:26.997Z,2.50
2022-10-31T10:34:04.435Z,2.50
2022-10-31T10:36:38.898Z,2.60
2022-10-31T10:39:18.078Z,1.77
2022-10-31T10:42:04.434Z,3.65
2022-10-31T10:44:49.972Z,1.90
2022-10-31T10:47:35.569Z,2.00
2022-10-31T10:50:09.570Z,1.70
2022-10-31T10:52:50.917Z,1.83
2022-10-31T10:55:35.187Z,2.70
2022-10-31T11:00:47.564Z,1.83
2022-10-31T11:03:18.709Z,2.10
2022-10-31T11:05:52.344Z,1.77
2022-10-31T11:08:31.239Z,2.30
2022-10-31T11:11:05.737Z,1.77
2022-10-31T11:13:35.888Z,1.95
2022-10-31T11:16:07.111Z,2.70
2022-10-31T11:18:38.962Z,1.60
2022-10-31T11:21:08.249Z,1.73
2022-10-31T11:23:36.525Z,1.60
2022-10-31T11:26:08.101Z,2.08
2022-10-31T11:28:36.555Z,1.70
2022-10-31T11:31:09.637Z,1.70
2022-10-31T11:33:39.893Z,1.65
2022-10-31T11:36:18.716Z,1.30
2022-10-31T11:38:46.997Z,1.40
2022-10-31T11:41:19.393Z,1.40
2022-10-31T11:43:54.326Z,1.50
2022-10-31T11:46:28.110Z,1.40
2022-10-31T11:48:59.256Z,1.60
2022-10-31T11:51:30.405Z,1.65
2022-10-31T11:54:02.978Z,1.35
2022-10-31T11:56:42.351Z,1.30
2022-10-31T11:59:20.969Z,1.33
2022-10-31T12:01:51.255Z,1.45
2022-10-31T12:04:19.798Z,1.27
2022-10-31T12:06:51.511Z,1.20
2022-10-31T12:09:24.895Z,1.67
2022-10-31T12:12:05.702Z,1.80
2022-10-31T12:14:43.028Z,1.27
2022-10-31T12:17:16.960Z,1.60
2022-10-31T12:19:56.254Z,1.20
2022-10-31T12:22:29.950Z,1.30
2022-10-31T12:25:25.824Z,1.20
2022-10-31T12:28:26.380Z,1.25
2022-10-31T12:31:04.195Z,1.10
2022-10-31T12:33:45.272Z,1.17
2022-10-31T12:36:31.606Z,1.00
2022-10-31T12:39:16.193Z,1.27
2022-10-31T12:41:52.160Z,1.40
2022-10-31T12:44:46.251Z,1.30
2022-10-31T12:47:42.428Z,1.25
2022-10-31T12:50:24.680Z,1.50
2022-10-31T12:53:03.917Z,1.00
2022-10-31T12:55:42.714Z,1.00
2022-10-31T12:58:16.608Z,1.40
2022-10-31T13:00:50.789Z,1.20
2022-10-31T13:03:28.639Z,1.40
2022-10-31T13:06:00.479Z,1.00
2022-10-31T13:08:39.308Z,1.30
2022-10-31T13:11:13.014Z,1.75
2022-10-31T13:13:45.807Z,1.20
2022-10-31T13:16:17.863Z,1.05
2022-10-31T13:18:56.529Z,1.23
2022-10-31T13:21:28.414Z,1.25
2022-10-31T13:24:01.279Z,1.40
2022-10-31T13:26:42.908Z,1.15
2022-10-31T13:29:18.455Z,1.52
2022-10-31T13:31:48.191Z,1.35
2022-10-31T13:34:27.944Z,1.58
2022-10-31T13:37:04.015Z,1.83
2022-10-31T13:39:43.004Z,2.00
2022-10-31T13:42:19.617Z,1.60
2022-10-31T13:44:47.711Z,2.60
2022-10-31T13:47:31.087Z,2.05
2022-10-31T13:50:07.891Z,2.60
2022-10-31T13:52:36.027Z,1.77
2022-10-31T13:55:04.321Z,1.85
2022-10-31T13:57:36.971Z,1.70
2022-10-31T14:00:09.137Z,1.55
2022-10-31T14:02:49.763Z,1.58
2022-10-31T14:05:25.876Z,1.83
2022-10-31T14:07:55.334Z,1.67
2022-10-31T14:10:28.788Z,1.48
2022-10-31T14:13:06.683Z,1.30
2022-10-31T14:15:40.221Z,1.60
2022-10-31T14:18:25.558Z,1.30
2022-10-31T14:20:53.811Z,1.50
2022-10-31T14:23:38.618Z,1.80
2022-10-31T14:26:34.023Z,1.45
2022-10-31T14:29:07.163Z,1.42
2022-10-31T14:31:38.867Z,1.90
2022-10-31T14:34:23.796Z,1.30
2022-10-31T14:37:20.785Z,1.73
2022-10-31T14:40:01.478Z,1.55
2022-10-31T14:42:47.902Z,1.45
2022-10-31T14:45:26.919Z,1.27
2022-10-31T14:48:09.502Z,1.52
2022-10-31T14:50:49.497Z,1.70
2022-10-31T14:53:24.650Z,1.30
2022-10-31T14:55:55.730Z,1.33
2022-10-31T14:58:27.509Z,1.60
2022-10-31T15:00:57.815Z,1.77
2022-10-31T15:03:32.035Z,1.70
2022-10-31T15:06:07.371Z,1.58
2022-10-31T15:08:39.997Z,1.77
2022-10-31T15:11:16.132Z,1.92
2022-10-31T15:13:46.259Z,2.10
2022-10-31T15:16:16.312Z,1.75
2022-10-31T15:18:51.641Z,1.53
2022-10-31T15:21:23.165Z,1.58
2022-10-31T15:23:55.109Z,1.92
2022-10-31T15:26:25.174Z,2.70
2022-10-31T15:29:01.928Z,2.08
2022-10-31T15:31:31.944Z,2.30
2022-10-31T15:34:05.521Z,1.83
2022-10-31T15:36:38.408Z,2.10
2022-10-31T15:39:07.152Z,2.13
2022-10-31T15:41:38.645Z,1.73
2022-10-31T15:44:16.566Z,2.10
2022-10-31T15:46:53.737Z,1.80
2022-10-31T15:49:31.648Z,2.50
2022-10-31T15:52:05.969Z,2.13
2022-10-31T15:54:34.753Z,2.38
2022-10-31T15:57:02.906Z,2.08
2022-10-31T15:59:32.258Z,2.05
2022-10-31T16:02:11.284Z,2.45
2022-10-31T16:04:39.650Z,2.13
2022-10-31T16:07:22.969Z,1.80
2022-10-31T16:09:57.456Z,2.33
2022-10-31T16:12:27.232Z,1.77
2022-10-31T16:14:57.149Z,1.80
2022-10-31T16:17:28.613Z,1.70
2022-10-31T16:19:59.401Z,2.15
2022-10-31T16:22:31.738Z,1.77
2022-10-31T16:25:04.753Z,2.10
2022-10-31T16:27:35.803Z,1.50
2022-10-31T16:30:06.324Z,2.03
2022-10-31T16:32:37.293Z,2.22
2022-10-31T16:35:33.662Z,2.08
2022-10-31T16:38:03.208Z,1.70
2022-10-31T16:40:32.045Z,1.90
2022-10-31T16:43:02.185Z,2.03
2022-10-31T16:45:32.636Z,1.90
2022-10-31T16:48:05.951Z,1.70
2022-10-31T16:50:34.787Z,2.40
2022-10-31T16:53:19.485Z,1.77
2022-10-31T16:55:50.344Z,2.08
2022-10-31T16:58:22.896Z,1.80
2022-10-31T17:00:51.880Z,2.25
2022-10-31T17:03:20.594Z,1.98
2022-10-31T17:05:48.781Z,1.98
2022-10-31T17:08:18.559Z,2.17
2022-10-31T17:10:47.958Z,2.40
2022-10-31T17:13:23.139Z,1.90
2022-10-31T17:15:54.955Z,2.22
2022-10-31T17:18:27.340Z,2.78
2022-10-31T17:20:59.484Z,2.20
2022-10-31T17:23:29.404Z,2.83
2022-10-31T17:25:57.833Z,2.67
2022-10-31T17:28:26.843Z,2.67
2022-10-31T17:30:58.452Z,3.00
2022-10-31T17:33:26.554Z,3.05
2022-10-31T17:35:55.041Z,2.90
2022-10-31T17:38:22.999Z,3.30
2022-10-31T17:40:52.393Z,3.38
2022-10-31T17:43:20.577Z,3.20
2022-10-31T17:45:48.872Z,3.67
2022-10-31T17:48:17.256Z,4.93
2022-10-31T17:50:45.380Z,4.68
2022-10-31T17:53:13.557Z,4.93
2022-10-31T17:55:41.845Z,5.32
2022-10-31T17:58:12.394Z,5.47
2022-10-31T18:00:44.730Z,5.22
2022-10-31T18:03:15.828Z,6.22
2022-10-31T18:05:53.247Z,6.70
2022-10-31T18:08:21.485Z,6.43
2022-10-31T18:10:49.555Z,6.45
2022-10-31T18:13:18.944Z,7.20
2022-10-31T18:15:47.287Z,7.47
2022-10-31T18:18:15.820Z,8.27
2022-10-31T18:20:46.196Z,7.65
2022-10-31T18:23:14.393Z,8.43
2022-10-31T18:25:43.518Z,10.10
2022-10-31T18:28:12.050Z,9.65
2022-10-31T18:30:42.679Z,10.65
2022-10-31T18:33:10.784Z,10.38
2022-10-31T18:35:39.470Z,12.13
2022-10-31T18:38:08.198Z,12.30
2022-10-31T18:40:36.826Z,12.18
2022-10-31T18:43:05.835Z,12.07
2022-10-31T18:45:46.488Z,14.32
2022-10-31T18:48:18.203Z,12.93
2022-10-31T18:50:49.623Z,14.73
2022-10-31T18:53:17.871Z,13.52
2022-10-31T18:55:49.255Z,13.82
2022-10-31T18:58:18.291Z,15.23
2022-10-31T19:00:48.700Z,13.55
2022-10-31T19:03:23.279Z,13.95
2022-10-31T19:05:56.233Z,13.30
2022-10-31T19:08:24.312Z,14.88
2022-10-31T19:10:52.525Z,13.77
2022-10-31T19:13:20.653Z,14.63
2022-10-31T19:15:49.085Z,13.65
2022-10-31T19:18:18.994Z,14.55
2022-10-31T19:20:47.047Z,14.15
2022-10-31T19:23:15.175Z,14.00
2022-10-31T19:28:16.461Z,14.27
2022-10-31T19:30:44.719Z,13.70
2022-10-31T19:33:12.783Z,13.95
2022-10-31T19:35:42.472Z,13.27
2022-10-31T19:38:10.591Z,12.63
2022-10-31T19:40:38.635Z,13.38
2022-10-31T19:43:07.018Z,14.05
2022-10-31T19:45:35.012Z,13.73
2022-10-31T19:48:03.687Z,12.52
2022-10-31T19:50:32.116Z,14.00
2022-10-31T19:53:01.841Z,14.70
2022-10-31T19:55:30.112Z,13.85
2022-10-31T19:58:01.922Z,13.85
2022-10-31T20:00:30.473Z,13.90
2022-10-31T20:02:59.991Z,12.05
2022-10-31T20:05:28.438Z,12.32
2022-10-31T20:07:57.630Z,11.98
2022-10-31T20:10:27.102Z,12.00
2022-10-31T20:12:55.135Z,13.48
2022-10-31T20:15:23.429Z,13.10
2022-10-31T20:17:51.591Z,12.98
2022-10-31T20:20:19.929Z,12.18
2022-10-31T20:22:49.801Z,11.60
2022-10-31T20:25:18.247Z,10.83
2022-10-31T20:27:47.735Z,11.88
2022-10-31T20:30:15.949Z,11.32
2022-10-31T20:32:49.021Z,10.45
2022-10-31T20:35:18.568Z,10.73
2022-10-31T20:37:46.769Z,10.60
2022-10-31T20:40:14.848Z,10.60
2022-10-31T20:42:45.984Z,10.02
2022-10-31T20:45:15.415Z,9.50
2022-10-31T20:47:43.508Z,7.22
2022-10-31T20:50:11.554Z,6.57
2022-10-31T20:52:40.583Z,6.70
2022-10-31T20:55:09.751Z,6.00
2022-10-31T20:57:37.791Z,6.30
2022-10-31T21:00:07.525Z,6.50
2022-10-31T21:02:37.071Z,6.18
2022-10-31T21:05:08.459Z,5.07
2022-10-31T21:07:37.010Z,7.60
2022-10-31T21:10:14.880Z,5.68
2022-10-31T21:12:44.279Z,6.20
2022-10-31T21:15:14.643Z,5.45
2022-10-31T21:17:44.150Z,6.72
2022-10-31T21:20:12.580Z,5.75
2022-10-31T21:22:40.797Z,6.22
2022-10-31T21:25:09.446Z,5.57
2022-10-31T21:27:37.560Z,6.13
2022-10-31T21:30:06.651Z,5.57
2022-10-31T21:32:34.852Z,5.35
2022-10-31T21:35:04.699Z,5.82
2022-10-31T21:37:32.645Z,6.85
2022-10-31T21:40:02.602Z,7.00
2022-10-31T21:42:33.526Z,6.30
2022-10-31T21:47:29.751Z,6.68
2022-10-31T21:49:57.834Z,5.55
2022-10-31T21:52:27.642Z,6.75
2022-10-31T21:54:54.805Z,5.70
2022-10-31T21:57:23.413Z,6.72
2022-10-31T21:59:51.522Z,5.60
2022-10-31T22:02:19.685Z,5.45
2022-10-31T22:04:51.347Z,5.75
2022-10-31T22:07:19.613Z,5.88
2022-10-31T22:09:49.176Z,5.65
2022-10-31T22:12:17.508Z,5.80
2022-10-31T22:14:48.059Z,5.22
2022-10-31T22:17:16.151Z,5.68
2022-10-31T22:19:44.335Z,5.63
2022-10-31T22:22:13.613Z,4.80
2022-10-31T22:24:44.244Z,3.72
2022-10-31T22:27:13.869Z,4.40
2022-10-31T22:29:44.355Z,3.65
2022-10-31T22:32:12.587Z,3.28
2022-10-31T22:34:40.831Z,3.58
2022-10-31T22:37:08.933Z,3.38
2022-10-31T22:39:37.232Z,3.70
2022-10-31T22:42:05.802Z,3.50
2022-10-31T22:44:35.629Z,3.60
2022-10-31T22:47:04.178Z,3.15
2022-10-31T22:49:32.735Z,3.33
2022-10-31T22:52:03.549Z,3.15
2022-10-31T22:54:32.282Z,3.75
2022-10-31T22:57:00.433Z,3.50
2022-10-31T22:59:28.597Z,3.08
2022-10-31T23:01:58.219Z,2.83
2022-10-31T23:04:26.512Z,3.08
2022-10-31T23:06:54.816Z,2.88
2022-10-31T23:09:22.881Z,2.55
2022-10-31T23:11:50.901Z,2.90
2022-10-31T23:14:20.933Z,2.55
2022-10-31T23:16:52.599Z,1.65
2022-10-31T23:19:24.157Z,1.30
2022-10-31T23:22:00.015Z,1.15
2022-10-31T23:24:35.585Z,1.40
2022-10-31T23:27:11.197Z,1.05
2022-10-31T23:29:45.281Z,1.13
2022-10-31T23:32:17.217Z,1.13
2022-10-31T23:34:48.669Z,1.05
2022-10-31T23:37:20.728Z,2.20
2022-10-31T23:39:49.239Z,1.20
2022-10-31T23:42:17.532Z,1.30
2022-10-31T23:44:49.098Z,1.50
2022-10-31T23:47:19.182Z,1.08
2022-10-31T23:49:49.016Z,1.07
2022-10-31T23:52:17.565Z,1.15
2022-10-31T23:54:45.873Z,1.65
2022-10-31T23:57:15.417Z,1.77
2022-10-31T23:59:43.803Z,1.60
